createdAt,value
2019-04-22T00:02:54.191Z,89.916992
2019-04-22T00:06:43.880Z,90.222168
2019-04-22T00:10:25.894Z,90.325928
2019-04-22T00:13:56.528Z,90.740967
2019-04-22T00:17:38.135Z,90.844727
2019-04-22T00:21:12.021Z,91.156006
2019-04-22T00:24:43.439Z,91.296387
2019-04-22T00:28:21.324Z,91.400146
2019-04-22T00:31:52.622Z,91.400146
2019-04-22T00:35:23.469Z,91.711426
2019-04-22T00:39:06.372Z,91.918945
2019-04-22T00:42:40.784Z,92.333984
2019-04-22T00:46:10.719Z,92.437744
2019-04-22T00:53:22.322Z,92.333984
2019-04-22T00:56:53.805Z,91.85791
2019-04-22T01:00:30.612Z,92.06543
2019-04-22T01:04:12.307Z,92.169189
2019-04-22T01:07:42.814Z,92.169189
2019-04-22T01:11:22.525Z,91.96167
2019-04-22T01:14:53.645Z,92.169189
2019-04-22T01:18:22.193Z,91.96167
2019-04-22T01:21:57.536Z,91.96167
2019-04-22T01:25:29.278Z,91.85791
2019-04-22T01:29:00.685Z,91.485596
2019-04-22T01:32:27.191Z,91.278076
2019-04-22T01:36:13.517Z,91.278076
2019-04-22T01:39:56.746Z,91.485596
2019-04-22T01:43:31.356Z,91.278076
2019-04-22T01:50:36.650Z,91.278076
2019-04-22T01:54:21.954Z,91.381836
2019-04-22T01:57:47.184Z,91.485596
2019-04-22T02:01:30.124Z,91.485596
2019-04-22T02:05:04.217Z,90.661621
2019-04-22T02:08:44.488Z,91.235352
2019-04-22T02:12:12.719Z,91.235352
2019-04-22T02:15:51.782Z,91.711426
2019-04-22T02:19:35.474Z,91.815186
2019-04-22T02:23:15.100Z,91.19873
2019-04-22T02:26:35.302Z,90.826416
2019-04-22T02:30:05.108Z,91.235352
2019-04-22T02:37:18.438Z,91.711426
2019-04-22T02:44:27.771Z,91.711426
2019-04-22T02:48:09.622Z,91.772461
2019-04-22T02:51:32.450Z,91.668701
2019-04-22T02:55:31.734Z,91.259766
2019-04-22T03:04:18.057Z,90.118408
2019-04-22T03:07:57.725Z,89.813232
2019-04-22T03:11:32.723Z,89.562988
2019-04-22T03:14:59.247Z,89.251709
2019-04-22T03:18:46.367Z,89.459229
2019-04-22T03:22:15.963Z,89.355469
2019-04-22T03:29:27.864Z,89.190674
2019-04-22T03:37:03.441Z,88.885498
2019-04-22T03:43:53.761Z,89.294434
2019-04-22T03:47:25.853Z,89.294434
2019-04-22T03:50:54.790Z,89.233398
2019-04-22T03:57:56.847Z,89.752197
2019-04-22T04:05:21.489Z,91.625977
2019-04-22T04:08:50.829Z,91.894531
2019-04-22T04:15:54.900Z,91.540527
2019-04-22T04:23:16.440Z,90.429688
2019-04-22T04:26:54.547Z,89.086914
2019-04-22T04:33:53.631Z,87.915039
2019-04-22T04:41:15.101Z,87.463379
2019-04-22T04:44:57.627Z,87.011719
2019-04-22T04:48:20.564Z,86.602783
2019-04-22T04:52:06.161Z,86.291504
2019-04-22T05:02:44.422Z,86.352539
2019-04-22T05:06:12.308Z,86.108398
2019-04-22T05:09:42.581Z,85.803223
2019-04-22T05:13:38.984Z,85.760498
2019-04-22T05:20:40.356Z,85.351562
2019-04-22T05:31:13.829Z,83.911133
2019-04-22T05:34:59.160Z,83.770752
2019-04-22T05:41:54.200Z,83.215332
2019-04-22T05:45:24.607Z,83.319092
2019-04-22T05:49:05.737Z,83.831787
2019-04-22T05:52:40.245Z,83.630371
2019-04-22T05:56:20.538Z,82.458496
2019-04-22T05:59:51.799Z,81.945801
2019-04-22T06:03:20.412Z,80.92041
2019-04-22T06:06:53.428Z,80.511475
2019-04-22T06:10:38.820Z,80.474854
2019-04-22T06:14:00.758Z,81.152344
2019-04-22T06:17:46.751Z,80.541992
2019-04-22T06:21:18.373Z,80.438232
2019-04-22T06:24:55.050Z,79.58374
2019-04-22T06:28:34.647Z,79.376221
2019-04-22T06:39:14.135Z,79.852295
2019-04-22T06:42:51.526Z,78.826904
2019-04-22T06:49:58.518Z,77.764893
2019-04-22T06:53:34.224Z,75.274658
2019-04-22T06:57:05.476Z,74.865723
2019-04-22T07:00:41.433Z,76.159668
2019-04-22T07:04:16.070Z,75.653076
2019-04-22T07:07:53.178Z,75.653076
2019-04-22T07:11:29.438Z,74.182129
2019-04-22T07:15:10.882Z,73.364258
2019-04-22T07:18:42.811Z,73.028564
2019-04-22T07:22:16.099Z,73.876953
2019-04-22T07:25:45.017Z,73.980713
2019-04-22T07:29:24.744Z,74.182129
2019-04-22T07:40:09.377Z,72.070312
2019-04-22T07:47:23.163Z,71.972656
2019-04-22T07:51:02.227Z,70.068359
2019-04-22T07:54:31.411Z,65.203857
2019-04-22T07:58:11.572Z,62.109375
2019-04-22T08:01:41.348Z,61.16333
2019-04-22T08:05:18.219Z,61.340332
2019-04-22T08:08:50.927Z,59.606934
2019-04-22T08:12:33.055Z,60.449219
2019-04-22T08:16:02.382Z,61.981201
2019-04-22T08:19:41.536Z,62.023926
2019-04-22T08:23:15.983Z,61.517334
2019-04-22T08:26:37.781Z,61.517334
2019-04-22T08:30:27.541Z,61.791992
2019-04-22T08:34:01.484Z,60.467529
2019-04-22T08:41:16.186Z,61.053467
2019-04-22T08:44:56.575Z,60.003662
2019-04-22T08:48:14.842Z,57.336426
2019-04-22T08:51:48.473Z,57.305908
2019-04-22T08:55:31.154Z,55.273438
2019-04-22T08:59:07.794Z,54.742432
2019-04-22T09:04:35.677Z,55.249023
2019-04-22T09:08:18.523Z,58.14209
2019-04-22T09:11:54.210Z,56.311035
2019-04-22T09:15:25.973Z,56.414795
2019-04-22T09:18:59.094Z,55.371094
2019-04-22T09:22:32.103Z,56.182861
2019-04-22T09:26:08.487Z,55.780029
2019-04-22T09:29:42.701Z,54.333496
2019-04-22T09:33:20.240Z,53.216553
2019-04-22T09:36:56.933Z,53.094482
2019-04-22T09:40:28.156Z,49.32251
2019-04-22T09:44:01.953Z,50.43335
2019-04-22T09:51:11.320Z,49.554443
2019-04-22T09:54:52.664Z,48.87085
2019-04-22T09:58:23.101Z,48.339844
2019-04-22T10:02:12.718Z,48.217773
2019-04-22T10:05:32.101Z,48.699951
2019-04-22T10:12:42.125Z,47.814941
2019-04-22T10:16:25.137Z,49.914551
2019-04-22T10:19:52.844Z,49.505615
2019-04-22T10:23:31.158Z,48.193359
2019-04-22T10:27:01.194Z,46.276855
2019-04-22T10:30:59.663Z,47.259521
2019-04-22T10:33:59.665Z,46.960449
2019-04-22T10:37:25.631Z,46.557617
2019-04-22T10:40:58.649Z,46.356201
2019-04-22T10:44:30.955Z,43.505859
2019-04-22T10:48:02.289Z,44.696045
2019-04-22T10:51:34.814Z,46.063232
2019-04-22T10:55:07.198Z,43.707275
2019-04-22T10:58:40.332Z,43.786621
